Terminal Aerodrome Forecast
Issued by NWS

Home | Current Version | Previous Version | Text Only | Print | Product List | Glossary On
Versions: 1 2 3 4 5 6 7 8 9 10 11 12 13 14 15 16
000
FTUS44 KLZK 291730
TAFADF
TAF
KADF 291730Z 2918/3018 VRB05KT P6SM SKC
     FM300000 03003KT P6SM SCT250
      TEMPO 3009/3012 5SM BR
     FM301200 03005KT P6SM SCT250=

USA.gov is the U.S. government's official web portal to all federal, state and local government web resources and services.